NCAR-RAP Real-Time Weather Data

Output produced by METARs form (24 January 2022  23:08 UTC)
found at http://weather.rap.ucar.edu/surface/
 
KILM 242153Z 15005KT 10SM CLR 10/M01 A2992 RMK AO2 SLP132 T01001011
KILM 242118Z 17006KT 10SM CLR 11/M01 A2992 RMK AO2 T01061011
KILM 242053Z 16007KT 10SM CLR 11/M02 A2991 RMK AO2 SLP128 T01111017 55005
KILM 241953Z 14005KT 10SM CLR 12/M01 A2989 RMK AO2 SLP122 T01171011
KILM 241853Z 13004KT 10SM CLR 12/00 A2991 RMK AO2 SLP129 T01170000
KILM 241753Z 08005KT 10SM CLR 12/M01 A2993 RMK AO2 SLP134 T01171011 10122 21017 58019
KILM 241653Z 04007KT 350V060 10SM CLR 11/M01 A2996 RMK AO2 SLP145 T01061011
KILM 241553Z 05003KT 10SM CLR 09/M01 A2998 RMK AO2 SLP151 T00891011
KILM 241453Z 04010KT 10SM CLR 07/M01 A2998 RMK AO2 SLP152 T00671006 51015
KILM 241425Z 04005KT 10SM CLR 06/00 A2998 RMK AO2 T00560000
KILM 241353Z 02003KT 10SM CLR 04/00 A2997 RMK AO2 SLP147 T00390000